Time,TemperatureF,DewpointF,PressureIn,WindDirection,WindDirectionDegrees,WindSpeedMPH,WindSpeedGustMPH,Humidity,HourlyPrecipIn,Conditions,Clouds,dailyrainin,SoftwareType,DateUTC
2013-06-14 00:01:00,77.6,72.0,29.66,West,273,14.0,-999.0,83,0.00,,,0.02,Wunderground v.1.15,2013-06-14 04:01:00,
2013-06-14 00:02:00,77.5,71.9,29.66,WNW,288,10.0,-999.0,83,0.00,,,0.02,Wunderground v.1.15,2013-06-14 04:02:00,
2013-06-14 00:03:00,77.5,71.6,29.66,West,281,7.0,-999.0,82,0.00,,,0.02,Wunderground v.1.15,2013-06-14 04:03:00,
2013-06-14 00:04:00,77.6,72.0,29.66,WNW,282,11.0,-999.0,83,0.00,,,0.02,Wunderground v.1.15,2013-06-14 04:04:00,
2013-06-14 00:09:00,77.7,71.8,29.68,WNW,289,12.0,-999.0,82,0.00,,,0.02,Wunderground v.1.15,2013-06-14 04:09:00,
2013-06-14 00:12:00,78.0,72.1,29.70,West,266,14.0,-999.0,82,0.00,,,0.02,Wunderground v.1.15,2013-06-14 04:12:00,
2013-06-14 00:17:00,77.9,72.0,29.70,NW,306,17.0,-999.0,82,0.00,,,0.02,Wunderground v.1.15,2013-06-14 04:17:00,
2013-06-14 00:23:00,77.7,71.0,29.69,NW,307,15.0,-999.0,80,0.00,,,0.02,Wunderground v.1.15,2013-06-14 04:23:00,
2013-06-14 00:29:00,76.2,71.0,29.67,WNW,302,23.0,-999.0,84,0.00,,,0.02,Wunderground v.1.15,2013-06-14 04:29:00,
2013-06-14 00:34:00,75.6,71.5,29.68,WNW,301,22.0,-999.0,87,0.00,,,0.02,Wunderground v.1.15,2013-06-14 04:34:00,
2013-06-14 00:40:00,75.3,70.8,29.69,NW,308,13.0,-999.0,86,0.00,,,0.02,Wunderground v.1.15,2013-06-14 04:40:00,
2013-06-14 00:46:00,75.5,71.7,29.70,WNW,292,18.0,-999.0,88,0.00,,,0.03,Wunderground v.1.15,2013-06-14 04:46:00,
2013-06-14 00:51:00,74.7,70.9,29.70,NW,305,17.0,-999.0,88,0.51,,,0.10,Wunderground v.1.15,2013-06-14 04:51:00,
2013-06-14 00:57:00,74.2,70.4,29.70,NW,319,16.0,-999.0,88,0.17,,,0.12,Wunderground v.1.15,2013-06-14 04:57:00,
2013-06-14 01:03:00,74.5,70.7,29.70,NNW,333,26.0,-999.0,88,0.09,,,0.12,Wunderground v.1.15,2013-06-14 05:03:00,
2013-06-14 01:08:00,74.6,70.5,29.69,NNW,327,20.0,-999.0,87,0.08,,,0.13,Wunderground v.1.15,2013-06-14 05:08:00,
2013-06-14 01:14:00,74.3,70.5,29.67,NNW,336,15.0,-999.0,88,0.12,,,0.14,Wunderground v.1.15,2013-06-14 05:14:00,
2013-06-14 01:20:00,74.4,70.9,29.66,NNW,329,10.0,-999.0,89,0.13,,,0.16,Wunderground v.1.15,2013-06-14 05:20:00,
2013-06-14 01:25:00,74.2,70.4,29.65,NNW,346,11.0,-999.0,88,0.13,,,0.17,Wunderground v.1.15,2013-06-14 05:25:00,
2013-06-14 01:31:00,74.1,70.3,29.62,North,350,6.0,-999.0,88,0.13,,,0.18,Wunderground v.1.15,2013-06-14 05:31:00,
2013-06-14 01:36:00,74.1,70.3,29.63,NNW,348,2.0,-999.0,88,0.08,,,0.18,Wunderground v.1.15,2013-06-14 05:36:00,
2013-06-14 01:41:00,73.8,70.4,29.65,NNW,333,2.0,-999.0,89,0.05,,,0.18,Wunderground v.1.15,2013-06-14 05:41:00,
2013-06-14 01:46:00,73.5,70.4,29.67,WNW,287,9.0,-999.0,90,0.00,,,0.18,Wunderground v.1.15,2013-06-14 05:46:00,
2013-06-14 01:52:00,73.8,70.7,29.68,NW,312,13.0,-999.0,90,0.00,,,0.19,Wunderground v.1.15,2013-06-14 05:52:00,
2013-06-14 01:57:00,74.1,71.0,29.65,NNW,332,14.0,-999.0,90,0.15,,,0.20,Wunderground v.1.15,2013-06-14 05:57:00,
2013-06-14 02:02:00,74.2,71.1,29.63,NW,324,8.0,-999.0,90,0.07,,,0.20,Wunderground v.1.15,2013-06-14 06:02:00,
2013-06-14 02:07:00,74.3,70.8,29.61,NNW,346,7.0,-999.0,89,0.04,,,0.20,Wunderground v.1.15,2013-06-14 06:07:00,
2013-06-14 02:12:00,74.7,71.2,29.62,NNW,339,12.0,-999.0,89,0.00,,,0.20,Wunderground v.1.15,2013-06-14 06:12:00,
2013-06-14 02:17:00,74.9,71.1,29.63,NNW,328,11.0,-999.0,88,0.00,,,0.20,Wunderground v.1.15,2013-06-14 06:17:00,
2013-06-14 02:22:00,75.2,71.1,29.62,NW,317,9.0,-999.0,87,0.00,,,0.20,Wunderground v.1.15,2013-06-14 06:22:00,
2013-06-14 02:27:00,75.4,71.3,29.63,NNW,333,6.0,-999.0,87,0.00,,,0.20,Wunderground v.1.15,2013-06-14 06:27:00,
2013-06-14 02:32:00,75.7,71.6,29.64,WNW,299,6.0,-999.0,87,0.00,,,0.20,Wunderground v.1.15,2013-06-14 06:32:00,
2013-06-14 02:37:00,75.5,71.4,29.65,WNW,298,7.0,-999.0,87,0.00,,,0.20,Wunderground v.1.15,2013-06-14 06:37:00,
2013-06-14 02:42:00,75.4,71.3,29.66,WNW,300,12.0,-999.0,87,0.00,,,0.20,Wunderground v.1.15,2013-06-14 06:42:00,
2013-06-14 02:47:00,75.3,71.2,29.65,WNW,291,12.0,-999.0,87,0.00,,,0.20,Wunderground v.1.15,2013-06-14 06:47:00,
2013-06-14 02:52:00,75.2,71.1,29.64,WNW,295,9.0,-999.0,87,0.00,,,0.20,Wunderground v.1.15,2013-06-14 06:52:00,
2013-06-14 02:57:00,75.3,71.2,29.63,WNW,301,9.0,-999.0,87,0.00,,,0.20,Wunderground v.1.15,2013-06-14 06:57:00,
2013-06-14 03:02:00,75.5,71.4,29.63,NW,310,9.0,-999.0,87,0.00,,,0.20,Wunderground v.1.15,2013-06-14 07:02:00,
2013-06-14 03:07:00,75.8,71.3,29.63,NW,315,10.0,-999.0,86,0.00,,,0.20,Wunderground v.1.15,2013-06-14 07:07:00,
2013-06-14 03:12:00,76.1,71.6,29.63,NW,322,12.0,-999.0,86,0.00,,,0.20,Wunderground v.1.15,2013-06-14 07:12:00,
2013-06-14 03:17:00,76.4,71.6,29.63,NNW,335,10.0,-999.0,85,0.00,,,0.20,Wunderground v.1.15,2013-06-14 07:17:00,
2013-06-14 03:22:00,76.6,71.4,29.63,NW,322,12.0,-999.0,84,0.00,,,0.20,Wunderground v.1.15,2013-06-14 07:22:00,
2013-06-14 03:27:00,76.6,71.0,29.64,NW,313,7.0,-999.0,83,0.00,,,0.20,Wunderground v.1.15,2013-06-14 07:27:00,
2013-06-14 03:32:00,76.5,70.6,29.64,WNW,298,9.0,-999.0,82,0.00,,,0.20,Wunderground v.1.15,2013-06-14 07:32:00,
2013-06-14 03:37:00,76.6,71.0,29.65,NW,309,11.0,-999.0,83,0.00,,,0.20,Wunderground v.1.15,2013-06-14 07:37:00,
2013-06-14 03:42:00,76.5,70.9,29.65,NW,312,10.0,-999.0,83,0.00,,,0.20,Wunderground v.1.15,2013-06-14 07:42:00,
2013-06-14 03:47:00,76.4,70.5,29.66,NW,320,11.0,-999.0,82,0.00,,,0.20,Wunderground v.1.15,2013-06-14 07:47:00,
2013-06-14 03:52:00,76.4,70.5,29.66,NW,317,8.0,-999.0,82,0.00,,,0.20,Wunderground v.1.15,2013-06-14 07:52:00,
2013-06-14 03:57:00,76.2,70.3,29.66,NW,320,12.0,-999.0,82,0.00,,,0.20,Wunderground v.1.15,2013-06-14 07:57:00,
2013-06-14 04:02:00,76.1,70.2,29.66,NW,319,14.0,-999.0,82,0.00,,,0.20,Wunderground v.1.15,2013-06-14 08:02:00,
2013-06-14 04:07:00,76.0,70.5,29.66,NNW,327,13.0,-999.0,83,0.00,,,0.20,Wunderground v.1.15,2013-06-14 08:07:00,
2013-06-14 04:12:00,75.8,70.6,29.66,NNW,340,11.0,-999.0,84,0.00,,,0.20,Wunderground v.1.15,2013-06-14 08:12:00,
2013-06-14 04:17:00,75.6,69.4,29.66,NNW,344,13.0,-999.0,81,0.00,,,0.20,Wunderground v.1.15,2013-06-14 08:17:00,
2013-06-14 04:23:00,75.9,68.9,29.65,North,355,15.0,-999.0,79,0.00,,,0.20,Wunderground v.1.15,2013-06-14 08:23:00,
2013-06-14 04:28:00,76.0,68.3,29.65,North,355,20.0,-999.0,77,0.00,,,0.20,Wunderground v.1.15,2013-06-14 08:28:00,
2013-06-14 04:33:00,76.0,68.3,29.66,NNW,336,21.0,-999.0,77,0.00,,,0.20,Wunderground v.1.15,2013-06-14 08:33:00,
2013-06-14 04:38:00,75.9,68.2,29.65,NNW,348,17.0,-999.0,77,0.00,,,0.20,Wunderground v.1.15,2013-06-14 08:38:00,
2013-06-14 04:43:00,75.7,68.4,29.65,NNW,344,19.0,-999.0,78,0.00,,,0.20,Wunderground v.1.15,2013-06-14 08:43:00,
2013-06-14 04:48:00,75.7,68.4,29.65,North,355,15.0,-999.0,78,0.00,,,0.20,Wunderground v.1.15,2013-06-14 08:48:00,
2013-06-14 04:53:00,75.5,67.0,29.65,North,5,20.0,-999.0,75,0.00,,,0.20,Wunderground v.1.15,2013-06-14 08:53:00,
2013-06-14 04:58:00,75.4,66.5,29.65,NNE,12,18.0,-999.0,74,0.00,,,0.20,Wunderground v.1.15,2013-06-14 08:58:00,
2013-06-14 05:03:00,75.3,65.6,29.65,North,5,16.0,-999.0,72,0.00,,,0.20,Wunderground v.1.15,2013-06-14 09:03:00,
2013-06-14 05:08:00,75.5,67.8,29.65,North,355,18.0,-999.0,77,0.00,,,0.20,Wunderground v.1.15,2013-06-14 09:08:00,
2013-06-14 05:13:00,75.4,67.3,29.65,NNE,15,19.0,-999.0,76,0.00,,,0.20,Wunderground v.1.15,2013-06-14 09:13:00,
2013-06-14 05:18:00,75.2,67.5,29.66,North,360,17.0,-999.0,77,0.00,,,0.20,Wunderground v.1.15,2013-06-14 09:18:00,
2013-06-14 05:23:00,74.9,66.8,29.66,North,350,19.0,-999.0,76,0.00,,,0.20,Wunderground v.1.15,2013-06-14 09:23:00,
2013-06-14 05:28:00,74.9,66.4,29.66,North,11,19.0,-999.0,75,0.00,,,0.20,Wunderground v.1.15,2013-06-14 09:28:00,
2013-06-14 05:33:00,74.8,66.7,29.66,North,5,15.0,-999.0,76,0.00,,,0.20,Wunderground v.1.15,2013-06-14 09:33:00,
2013-06-14 05:38:00,74.8,67.1,29.65,North,5,20.0,-999.0,77,0.00,,,0.20,Wunderground v.1.15,2013-06-14 09:38:00,
2013-06-14 05:43:00,74.8,66.0,29.65,North,360,17.0,-999.0,74,0.00,,,0.20,Wunderground v.1.15,2013-06-14 09:43:00,
2013-06-14 05:48:00,74.9,67.6,29.66,North,9,20.0,-999.0,78,0.00,,,0.20,Wunderground v.1.15,2013-06-14 09:48:00,
2013-06-14 05:53:00,74.9,66.4,29.66,North,5,21.0,-999.0,75,0.00,,,0.20,Wunderground v.1.15,2013-06-14 09:53:00,
2013-06-14 05:58:00,74.8,66.7,29.66,North,355,20.0,-999.0,76,0.00,,,0.20,Wunderground v.1.15,2013-06-14 09:58:00,
2013-06-14 06:03:00,74.7,65.9,29.67,NNE,13,19.0,-999.0,74,0.00,,,0.20,Wunderground v.1.15,2013-06-14 10:03:00,
2013-06-14 06:08:00,74.7,65.5,29.67,NNE,13,16.0,-999.0,73,0.00,,,0.20,Wunderground v.1.15,2013-06-14 10:08:00,
2013-06-14 06:13:00,74.7,67.0,29.67,NNE,12,16.0,-999.0,77,0.00,,,0.20,Wunderground v.1.15,2013-06-14 10:13:00,
2013-06-14 06:18:00,74.6,66.9,29.67,North,10,20.0,-999.0,77,0.00,,,0.20,Wunderground v.1.15,2013-06-14 10:18:00,
2013-06-14 06:23:00,74.5,66.8,29.67,North,5,16.0,-999.0,77,0.00,,,0.20,Wunderground v.1.15,2013-06-14 10:23:00,
2013-06-14 06:29:00,74.4,67.1,29.68,North,5,18.0,-999.0,78,0.00,,,0.20,Wunderground v.1.15,2013-06-14 10:29:00,
2013-06-14 06:34:00,74.2,67.6,29.68,North,355,19.0,-999.0,80,0.00,,,0.20,Wunderground v.1.15,2013-06-14 10:34:00,
2013-06-14 06:39:00,74.0,67.4,29.68,North,360,19.0,-999.0,80,0.00,,,0.20,Wunderground v.1.15,2013-06-14 10:39:00,
2013-06-14 06:44:00,74.3,68.4,29.69,NNW,346,15.0,-999.0,82,0.00,,,0.20,Wunderground v.1.15,2013-06-14 10:44:00,
2013-06-14 06:49:00,73.9,66.6,29.69,North,355,12.0,-999.0,78,0.00,,,0.20,Wunderground v.1.15,2013-06-14 10:49:00,
2013-06-14 06:54:00,74.1,65.7,29.69,NNW,347,16.0,-999.0,75,0.00,,,0.20,Wunderground v.1.15,2013-06-14 10:54:00,
2013-06-14 06:59:00,74.1,66.0,29.69,NNW,346,21.0,-999.0,76,0.00,,,0.20,Wunderground v.1.15,2013-06-14 10:59:00,
2013-06-14 07:04:00,74.2,65.8,29.69,NNW,348,18.0,-999.0,75,0.00,,,0.20,Wunderground v.1.15,2013-06-14 11:04:00,
2013-06-14 07:09:00,74.0,66.0,29.70,North,5,17.0,-999.0,76,0.00,,,0.20,Wunderground v.1.15,2013-06-14 11:09:00,
2013-06-14 07:14:00,73.9,65.9,29.69,North,9,16.0,-999.0,76,0.00,,,0.20,Wunderground v.1.15,2013-06-14 11:14:00,
2013-06-14 07:20:00,73.9,66.2,29.69,North,10,19.0,-999.0,77,0.00,,,0.20,Wunderground v.1.15,2013-06-14 11:20:00,
2013-06-14 07:25:00,73.6,66.3,29.69,North,5,24.0,-999.0,78,0.00,,,0.20,Wunderground v.1.15,2013-06-14 11:25:00,
2013-06-14 07:30:00,73.3,65.7,29.69,North,5,24.0,-999.0,77,0.00,,,0.20,Wunderground v.1.15,2013-06-14 11:30:00,
2013-06-14 07:35:00,73.5,66.6,29.69,North,9,23.0,-999.0,79,0.00,,,0.20,Wunderground v.1.15,2013-06-14 11:35:00,
2013-06-14 07:40:00,73.3,65.7,29.70,North,5,18.0,-999.0,77,0.00,,,0.20,Wunderground v.1.15,2013-06-14 11:40:00,
2013-06-14 07:45:00,73.2,65.6,29.69,North,360,17.0,-999.0,77,0.00,,,0.20,Wunderground v.1.15,2013-06-14 11:45:00,
2013-06-14 07:50:00,73.3,65.7,29.70,North,360,16.0,-999.0,77,0.00,,,0.20,Wunderground v.1.15,2013-06-14 11:50:00,
2013-06-14 07:55:00,73.1,65.5,29.70,North,360,19.0,-999.0,77,0.00,,,0.20,Wunderground v.1.15,2013-06-14 11:55:00,
2013-06-14 08:00:00,73.0,64.6,29.71,North,5,19.0,-999.0,75,0.00,,,0.20,Wunderground v.1.15,2013-06-14 12:00:00,
2013-06-14 08:05:00,73.0,65.4,29.71,North,360,18.0,-999.0,77,0.00,,,0.20,Wunderground v.1.15,2013-06-14 12:05:00,
2013-06-14 08:10:00,73.0,65.4,29.71,North,5,23.0,-999.0,77,0.00,,,0.20,Wunderground v.1.15,2013-06-14 12:10:00,
2013-06-14 08:15:00,73.0,65.7,29.71,North,355,22.0,-999.0,78,0.00,,,0.20,Wunderground v.1.15,2013-06-14 12:15:00,
2013-06-14 08:20:00,72.9,65.6,29.71,North,5,20.0,-999.0,78,0.00,,,0.20,Wunderground v.1.15,2013-06-14 12:20:00,
2013-06-14 08:25:00,72.8,65.2,29.71,North,5,20.0,-999.0,77,0.00,,,0.20,Wunderground v.1.15,2013-06-14 12:25:00,
2013-06-14 08:30:00,72.6,65.0,29.72,North,360,20.0,-999.0,77,0.00,,,0.20,Wunderground v.1.15,2013-06-14 12:30:00,
2013-06-14 08:35:00,72.5,65.2,29.72,North,5,22.0,-999.0,78,0.00,,,0.20,Wunderground v.1.15,2013-06-14 12:35:00,
2013-06-14 08:40:00,72.5,65.2,29.72,North,9,17.0,-999.0,78,0.00,,,0.20,Wunderground v.1.15,2013-06-14 12:40:00,
2013-06-14 08:45:00,72.6,65.7,29.72,NNE,17,20.0,-999.0,79,0.00,,,0.20,Wunderground v.1.15,2013-06-14 12:45:00,
2013-06-14 08:50:00,72.5,65.2,29.73,NNE,13,18.0,-999.0,78,0.00,,,0.20,Wunderground v.1.15,2013-06-14 12:50:00,
2013-06-14 08:55:00,72.5,64.9,29.73,NNE,21,17.0,-999.0,77,0.00,,,0.20,Wunderground v.1.15,2013-06-14 12:55:00,
2013-06-14 09:00:00,72.6,65.3,29.73,NNE,13,16.0,-999.0,78,0.00,,,0.20,Wunderground v.1.15,2013-06-14 13:00:00,
2013-06-14 09:05:00,72.4,65.2,29.73,North,5,18.0,-999.0,78,0.00,,,0.20,Wunderground v.1.15,2013-06-14 13:05:00,
2013-06-14 09:10:00,72.5,65.2,29.73,North,11,14.0,-999.0,78,0.00,,,0.20,Wunderground v.1.15,2013-06-14 13:10:00,
2013-06-14 09:15:00,72.5,64.5,29.73,NNE,17,14.0,-999.0,76,0.00,,,0.20,Wunderground v.1.15,2013-06-14 13:15:00,
2013-06-14 09:20:00,72.6,64.6,29.73,NNE,14,13.0,-999.0,76,0.00,,,0.20,Wunderground v.1.15,2013-06-14 13:20:00,
2013-06-14 09:25:00,72.5,64.5,29.73,NNE,22,12.0,-999.0,76,0.00,,,0.20,Wunderground v.1.15,2013-06-14 13:25:00,
2013-06-14 09:30:00,72.7,64.7,29.74,NNE,27,13.0,-999.0,76,0.00,,,0.20,Wunderground v.1.15,2013-06-14 13:30:00,
2013-06-14 09:35:00,72.8,63.6,29.74,North,9,17.0,-999.0,73,0.00,,,0.20,Wunderground v.1.15,2013-06-14 13:35:00,
2013-06-14 09:40:00,72.9,63.3,29.74,North,5,14.0,-999.0,72,0.00,,,0.20,Wunderground v.1.15,2013-06-14 13:40:00,
2013-06-14 09:45:00,72.8,63.6,29.75,NNE,28,16.0,-999.0,73,0.00,,,0.20,Wunderground v.1.15,2013-06-14 13:45:00,
2013-06-14 09:50:00,72.8,63.2,29.75,NNE,30,14.0,-999.0,72,0.00,,,0.20,Wunderground v.1.15,2013-06-14 13:50:00,
2013-06-14 09:55:00,72.9,63.3,29.75,NNE,19,17.0,-999.0,72,0.00,,,0.20,Wunderground v.1.15,2013-06-14 13:55:00,
2013-06-14 10:00:00,73.1,63.5,29.75,NNE,21,17.0,-999.0,72,0.00,,,0.20,Wunderground v.1.15,2013-06-14 14:00:00,
2013-06-14 10:05:00,73.2,64.0,29.75,North,10,18.0,-999.0,73,0.00,,,0.20,Wunderground v.1.15,2013-06-14 14:05:00,
2013-06-14 10:10:00,73.3,63.3,29.75,NNE,17,18.0,-999.0,71,0.00,,,0.20,Wunderground v.1.15,2013-06-14 14:10:00,
2013-06-14 10:15:00,73.2,62.8,29.75,NNE,14,17.0,-999.0,70,0.00,,,0.20,Wunderground v.1.15,2013-06-14 14:15:00,
2013-06-14 10:20:00,73.2,63.6,29.76,North,5,13.0,-999.0,72,0.00,,,0.20,Wunderground v.1.15,2013-06-14 14:20:00,
2013-06-14 10:25:00,73.2,62.8,29.76,NNE,17,14.0,-999.0,70,0.00,,,0.20,Wunderground v.1.15,2013-06-14 14:25:00,
2013-06-14 10:30:00,73.1,62.3,29.76,North,5,17.0,-999.0,69,0.00,,,0.20,Wunderground v.1.15,2013-06-14 14:30:00,
2013-06-14 10:35:00,73.2,62.4,29.76,North,10,15.0,-999.0,69,0.00,,,0.20,Wunderground v.1.15,2013-06-14 14:35:00,
2013-06-14 10:40:00,73.2,62.4,29.76,North,11,15.0,-999.0,69,0.00,,,0.20,Wunderground v.1.15,2013-06-14 14:40:00,
2013-06-14 10:45:00,73.1,62.7,29.76,NNE,13,15.0,-999.0,70,0.00,,,0.20,Wunderground v.1.15,2013-06-14 14:45:00,
2013-06-14 10:50:00,73.3,62.9,29.76,North,11,18.0,-999.0,70,0.00,,,0.20,Wunderground v.1.15,2013-06-14 14:50:00,
2013-06-14 10:55:00,73.4,63.4,29.76,North,355,16.0,-999.0,71,0.00,,,0.20,Wunderground v.1.15,2013-06-14 14:55:00,
2013-06-14 11:01:00,73.3,62.9,29.76,NNE,13,19.0,-999.0,70,0.00,,,0.20,Wunderground v.1.15,2013-06-14 15:01:00,
2013-06-14 11:06:00,73.4,63.4,29.76,North,355,16.0,-999.0,71,0.00,,,0.20,Wunderground v.1.15,2013-06-14 15:06:00,
2013-06-14 11:11:00,73.6,62.0,29.76,North,5,17.0,-999.0,67,0.00,,,0.20,Wunderground v.1.15,2013-06-14 15:11:00,
2013-06-14 11:16:00,73.4,62.2,29.76,North,355,17.0,-999.0,68,0.00,,,0.20,Wunderground v.1.15,2013-06-14 15:16:00,
2013-06-14 11:21:00,73.5,62.3,29.77,North,360,18.0,-999.0,68,0.00,,,0.20,Wunderground v.1.15,2013-06-14 15:21:00,
2013-06-14 11:26:00,73.5,61.9,29.77,North,360,19.0,-999.0,67,0.00,,,0.20,Wunderground v.1.15,2013-06-14 15:26:00,
2013-06-14 11:31:00,73.5,61.9,29.77,NNE,12,17.0,-999.0,67,0.00,,,0.20,Wunderground v.1.15,2013-06-14 15:31:00,
2013-06-14 11:36:00,73.6,62.4,29.77,North,5,18.0,-999.0,68,0.00,,,0.20,Wunderground v.1.15,2013-06-14 15:36:00,
2013-06-14 11:41:00,73.5,62.7,29.77,North,5,20.0,-999.0,69,0.00,,,0.20,Wunderground v.1.15,2013-06-14 15:41:00,
2013-06-14 11:46:00,73.6,62.0,29.77,NNE,12,15.0,-999.0,67,0.00,,,0.20,Wunderground v.1.15,2013-06-14 15:46:00,
2013-06-14 11:51:00,73.7,62.1,29.77,North,9,21.0,-999.0,67,0.00,,,0.20,Wunderground v.1.15,2013-06-14 15:51:00,
2013-06-14 11:56:00,73.9,63.5,29.77,North,351,15.0,-999.0,70,0.00,,,0.20,Wunderground v.1.15,2013-06-14 15:56:00,
2013-06-14 12:01:00,73.8,63.8,29.78,North,5,19.0,-999.0,71,0.00,,,0.20,Wunderground v.1.15,2013-06-14 16:01:00,
2013-06-14 12:05:00,73.9,62.7,29.78,NNE,20,17.0,-999.0,68,0.00,,,0.20,Wunderground v.1.15,2013-06-14 16:05:00,
2013-06-14 12:11:00,73.8,62.2,29.78,NNE,22,16.0,-999.0,67,0.00,,,0.20,Wunderground v.1.15,2013-06-14 16:11:00,
2013-06-14 12:16:00,73.9,61.8,29.78,NNW,348,20.0,-999.0,66,0.00,,,0.00,Wunderground v.1.15,2013-06-14 16:16:00,
2013-06-14 12:21:00,73.9,62.2,29.78,NNE,20,18.0,-999.0,67,0.00,,,0.00,Wunderground v.1.15,2013-06-14 16:21:00,
2013-06-14 12:26:00,74.1,62.4,29.78,NNE,15,17.0,-999.0,67,0.00,,,0.00,Wunderground v.1.15,2013-06-14 16:26:00,
2013-06-14 12:31:00,74.2,63.4,29.78,NNE,30,20.0,-999.0,69,0.00,,,0.00,Wunderground v.1.15,2013-06-14 16:31:00,
2013-06-14 12:36:00,74.2,61.7,29.79,NNE,13,19.0,-999.0,65,0.00,,,0.00,Wunderground v.1.15,2013-06-14 16:36:00,
2013-06-14 12:41:00,74.2,62.5,29.79,North,5,17.0,-999.0,67,0.00,,,0.00,Wunderground v.1.15,2013-06-14 16:41:00,
2013-06-14 12:46:00,74.4,62.3,29.79,North,5,19.0,-999.0,66,0.00,,,0.00,Wunderground v.1.15,2013-06-14 16:46:00,
2013-06-14 12:51:00,74.2,62.5,29.79,North,360,22.0,-999.0,67,0.00,,,0.00,Wunderground v.1.15,2013-06-14 16:51:00,
2013-06-14 12:56:00,74.0,61.5,29.79,NNE,14,14.0,-999.0,65,0.00,,,0.00,Wunderground v.1.15,2013-06-14 16:56:00,
2013-06-14 13:01:00,74.3,61.3,29.80,North,5,18.0,-999.0,64,0.00,,,0.00,Wunderground v.1.15,2013-06-14 17:01:00,
2013-06-14 13:06:00,74.5,62.0,29.80,NNE,19,20.0,-999.0,65,0.00,,,0.00,Wunderground v.1.15,2013-06-14 17:06:00,
2013-06-14 13:11:00,74.3,61.8,29.80,North,5,14.0,-999.0,65,0.00,,,0.00,Wunderground v.1.15,2013-06-14 17:11:00,
2013-06-14 13:16:00,74.4,62.7,29.80,NNE,25,16.0,-999.0,67,0.00,,,0.00,Wunderground v.1.15,2013-06-14 17:16:00,
2013-06-14 13:21:00,74.4,62.7,29.81,North,9,17.0,-999.0,67,0.00,,,0.00,Wunderground v.1.15,2013-06-14 17:21:00,
2013-06-14 13:26:00,74.5,62.0,29.80,North,9,19.0,-999.0,65,0.00,,,0.00,Wunderground v.1.15,2013-06-14 17:26:00,
2013-06-14 13:31:00,74.7,62.1,29.81,NNE,12,13.0,-999.0,65,0.00,,,0.00,Wunderground v.1.15,2013-06-14 17:31:00,
2013-06-14 13:36:00,74.7,62.6,29.81,NNE,22,18.0,-999.0,66,0.00,,,0.00,Wunderground v.1.15,2013-06-14 17:36:00,
2013-06-14 13:41:00,74.7,63.0,29.81,NE,40,11.0,-999.0,67,0.00,,,0.00,Wunderground v.1.15,2013-06-14 17:41:00,
2013-06-14 13:46:00,74.8,63.5,29.81,NNE,15,13.0,-999.0,68,0.00,,,0.00,Wunderground v.1.15,2013-06-14 17:46:00,
2013-06-14 13:51:00,74.6,61.6,29.81,NNE,30,13.0,-999.0,64,0.00,,,0.00,Wunderground v.1.15,2013-06-14 17:51:00,
2013-06-14 13:56:00,74.6,61.6,29.81,NNE,13,15.0,-999.0,64,0.00,,,0.00,Wunderground v.1.15,2013-06-14 17:56:00,
2013-06-14 14:01:00,74.8,63.1,29.81,NNE,20,18.0,-999.0,67,0.00,,,0.00,Wunderground v.1.15,2013-06-14 18:01:00,
2013-06-14 14:06:00,74.7,62.1,29.81,NNE,21,11.0,-999.0,65,0.00,,,0.00,Wunderground v.1.15,2013-06-14 18:06:00,
2013-06-14 14:11:00,75.0,62.9,29.81,NNE,28,13.0,-999.0,66,0.00,,,0.00,Wunderground v.1.15,2013-06-14 18:11:00,
2013-06-14 14:17:00,74.9,62.3,29.81,NNE,19,16.0,-999.0,65,0.00,,,0.00,Wunderground v.1.15,2013-06-14 18:17:00,
2013-06-14 14:21:00,74.9,63.2,29.81,NNE,28,12.0,-999.0,67,0.00,,,0.00,Wunderground v.1.15,2013-06-14 18:21:00,
2013-06-14 14:26:00,75.1,63.0,29.81,NNE,26,17.0,-999.0,66,0.00,,,0.00,Wunderground v.1.15,2013-06-14 18:26:00,
2013-06-14 14:32:00,75.0,62.9,29.81,North,11,17.0,-999.0,66,0.00,,,0.00,Wunderground v.1.15,2013-06-14 18:32:00,
2013-06-14 14:37:00,74.6,62.5,29.82,NE,34,14.0,-999.0,66,0.00,,,0.00,Wunderground v.1.15,2013-06-14 18:37:00,
2013-06-14 14:42:00,74.6,62.1,29.82,NNE,14,15.0,-999.0,65,0.00,,,0.00,Wunderground v.1.15,2013-06-14 18:42:00,
2013-06-14 14:47:00,74.8,62.7,29.82,NNE,26,17.0,-999.0,66,0.00,,,0.00,Wunderground v.1.15,2013-06-14 18:47:00,
2013-06-14 14:52:00,74.6,62.9,29.82,NNE,17,13.0,-999.0,67,0.00,,,0.00,Wunderground v.1.15,2013-06-14 18:52:00,
2013-06-14 14:57:00,74.5,61.5,29.82,NE,35,16.0,-999.0,64,0.00,,,0.00,Wunderground v.1.15,2013-06-14 18:57:00,
2013-06-14 15:02:00,74.6,62.5,29.82,NNE,16,18.0,-999.0,66,0.00,,,0.00,Wunderground v.1.15,2013-06-14 19:02:00,
2013-06-14 15:07:00,74.8,63.1,29.83,NNE,17,18.0,-999.0,67,0.00,,,0.00,Wunderground v.1.15,2013-06-14 19:07:00,
2013-06-14 15:12:00,74.1,64.9,29.83,NE,56,18.0,-999.0,73,0.00,,,0.00,Wunderground v.1.15,2013-06-14 19:12:00,
2013-06-14 15:17:00,73.6,64.4,29.83,NE,45,15.0,-999.0,73,0.00,,,0.00,Wunderground v.1.15,2013-06-14 19:17:00,
2013-06-14 15:22:00,73.7,64.9,29.83,NE,34,15.0,-999.0,74,0.00,,,0.00,Wunderground v.1.15,2013-06-14 19:22:00,
2013-06-14 15:27:00,73.5,64.3,29.83,NNE,30,18.0,-999.0,73,0.00,,,0.00,Wunderground v.1.15,2013-06-14 19:27:00,
2013-06-14 15:32:00,73.6,64.4,29.84,NE,36,13.0,-999.0,73,0.00,,,0.00,Wunderground v.1.15,2013-06-14 19:32:00,
2013-06-14 15:37:00,73.8,62.2,29.84,NNE,23,11.0,-999.0,67,0.00,,,0.00,Wunderground v.1.15,2013-06-14 19:37:00,
2013-06-14 15:42:00,73.9,62.2,29.84,NNE,22,14.0,-999.0,67,0.00,,,0.00,Wunderground v.1.15,2013-06-14 19:42:00,
2013-06-14 15:47:00,74.0,62.3,29.84,NNE,24,15.0,-999.0,67,0.00,,,0.00,Wunderground v.1.15,2013-06-14 19:47:00,
2013-06-14 15:52:00,74.3,63.5,29.84,NNE,13,14.0,-999.0,69,0.00,,,0.00,Wunderground v.1.15,2013-06-14 19:52:00,
2013-06-14 15:57:00,74.2,63.0,29.84,NNE,26,16.0,-999.0,68,0.00,,,0.00,Wunderground v.1.15,2013-06-14 19:57:00,
2013-06-14 16:02:00,73.9,61.8,29.84,NE,36,15.0,-999.0,66,0.00,,,0.00,Wunderground v.1.15,2013-06-14 20:02:00,
2013-06-14 16:07:00,74.1,62.4,29.84,NNE,29,14.0,-999.0,67,0.00,,,0.00,Wunderground v.1.15,2013-06-14 20:07:00,
2013-06-14 16:12:00,74.0,62.3,29.84,NE,46,14.0,-999.0,67,0.00,,,0.00,Wunderground v.1.15,2013-06-14 20:12:00,
2013-06-14 16:18:00,73.9,62.7,29.84,NE,51,14.0,-999.0,68,0.00,,,0.00,Wunderground v.1.15,2013-06-14 20:18:00,
2013-06-14 16:23:00,74.0,61.9,29.85,NE,35,13.0,-999.0,66,0.00,,,0.00,Wunderground v.1.15,2013-06-14 20:23:00,
2013-06-14 16:28:00,74.2,62.5,29.85,NE,53,10.0,-999.0,67,0.00,,,0.00,Wunderground v.1.15,2013-06-14 20:28:00,
2013-06-14 16:33:00,73.9,62.2,29.85,ENE,63,10.0,-999.0,67,0.00,,,0.00,Wunderground v.1.15,2013-06-14 20:33:00,
2013-06-14 16:38:00,73.6,62.8,29.86,NE,48,10.0,-999.0,69,0.00,,,0.00,Wunderground v.1.15,2013-06-14 20:38:00,
2013-06-14 16:43:00,73.5,63.5,29.86,ENE,58,11.0,-999.0,71,0.00,,,0.00,Wunderground v.1.15,2013-06-14 20:43:00,
2013-06-14 16:48:00,73.2,63.6,29.86,ENE,61,4.0,-999.0,72,0.00,,,0.00,Wunderground v.1.15,2013-06-14 20:48:00,
2013-06-14 16:53:00,73.2,62.4,29.86,NE,54,6.0,-999.0,69,0.00,,,0.00,Wunderground v.1.15,2013-06-14 20:53:00,
2013-06-14 16:58:00,73.5,62.7,29.86,ENE,58,12.0,-999.0,69,0.00,,,0.00,Wunderground v.1.15,2013-06-14 20:58:00,
2013-06-14 17:03:00,73.6,62.4,29.86,ENE,60,7.0,-999.0,68,0.00,,,0.00,Wunderground v.1.15,2013-06-14 21:03:00,
2013-06-14 17:08:00,73.5,62.7,29.87,NE,51,15.0,-999.0,69,0.00,,,0.00,Wunderground v.1.15,2013-06-14 21:08:00,
2013-06-14 17:13:00,73.6,62.8,29.86,ENE,63,10.0,-999.0,69,0.00,,,0.00,Wunderground v.1.15,2013-06-14 21:13:00,
2013-06-14 17:18:00,73.5,63.1,29.86,NE,46,13.0,-999.0,70,0.00,,,0.00,Wunderground v.1.15,2013-06-14 21:18:00,
2013-06-14 17:23:00,73.5,63.1,29.86,ENE,61,12.0,-999.0,70,0.00,,,0.00,Wunderground v.1.15,2013-06-14 21:23:00,
2013-06-14 17:28:00,73.9,63.5,29.86,NE,43,12.0,-999.0,70,0.00,,,0.00,Wunderground v.1.15,2013-06-14 21:28:00,
2013-06-14 17:33:00,74.3,61.8,29.86,NNE,28,13.0,-999.0,65,0.00,,,0.00,Wunderground v.1.15,2013-06-14 21:33:00,
2013-06-14 17:38:00,74.4,62.7,29.86,NNE,32,9.0,-999.0,67,0.00,,,0.00,Wunderground v.1.15,2013-06-14 21:38:00,
2013-06-14 17:43:00,74.3,62.2,29.86,NE,39,13.0,-999.0,66,0.00,,,0.00,Wunderground v.1.15,2013-06-14 21:43:00,
2013-06-14 17:48:00,74.2,61.7,29.86,NE,36,12.0,-999.0,65,0.00,,,0.00,Wunderground v.1.15,2013-06-14 21:48:00,
2013-06-14 17:53:00,74.2,62.1,29.86,NE,40,12.0,-999.0,66,0.00,,,0.00,Wunderground v.1.15,2013-06-14 21:53:00,
2013-06-14 17:58:00,74.1,61.6,29.86,NE,39,8.0,-999.0,65,0.00,,,0.00,Wunderground v.1.15,2013-06-14 21:58:00,
2013-06-14 18:03:00,74.1,61.6,29.87,NE,34,10.0,-999.0,65,0.00,,,0.00,Wunderground v.1.15,2013-06-14 22:03:00,
2013-06-14 18:08:00,74.1,61.6,29.87,NE,37,12.0,-999.0,65,0.00,,,0.00,Wunderground v.1.15,2013-06-14 22:08:00,
2013-06-14 18:13:00,74.3,62.6,29.87,North,360,14.0,-999.0,67,0.00,,,0.00,Wunderground v.1.15,2013-06-14 22:13:00,
2013-06-14 18:18:00,74.1,64.1,29.87,ENE,69,9.0,-999.0,71,0.00,,,0.00,Wunderground v.1.15,2013-06-14 22:18:00,
2013-06-14 18:23:00,73.5,65.1,29.87,ENE,64,16.0,-999.0,75,0.00,,,0.00,Wunderground v.1.15,2013-06-14 22:23:00,
2013-06-14 18:28:00,72.7,65.1,29.88,ENE,72,10.0,-999.0,77,0.00,,,0.00,Wunderground v.1.15,2013-06-14 22:28:00,
2013-06-14 18:33:00,72.1,64.9,29.88,ENE,71,15.0,-999.0,78,0.00,,,0.00,Wunderground v.1.15,2013-06-14 22:33:00,
2013-06-14 18:38:00,72.2,65.0,29.88,NE,55,16.0,-999.0,78,0.00,,,0.00,Wunderground v.1.15,2013-06-14 22:38:00,
2013-06-14 18:43:00,72.1,65.2,29.88,ENE,75,13.0,-999.0,79,0.00,,,0.00,Wunderground v.1.15,2013-06-14 22:43:00,
2013-06-14 18:48:00,72.0,65.1,29.88,ENE,65,11.0,-999.0,79,0.00,,,0.00,Wunderground v.1.15,2013-06-14 22:48:00,
2013-06-14 18:53:00,72.0,65.1,29.89,East,89,10.0,-999.0,79,0.00,,,0.00,Wunderground v.1.15,2013-06-14 22:53:00,
2013-06-14 18:58:00,71.9,65.0,29.88,ENE,64,12.0,-999.0,79,0.00,,,0.00,Wunderground v.1.15,2013-06-14 22:58:00,
2013-06-14 19:03:00,71.9,64.7,29.89,ENE,67,9.0,-999.0,78,0.00,,,0.00,Wunderground v.1.15,2013-06-14 23:03:00,
2013-06-14 19:08:00,72.0,65.5,29.89,ENE,59,15.0,-999.0,80,0.00,,,0.00,Wunderground v.1.15,2013-06-14 23:08:00,
2013-06-14 19:13:00,72.0,64.8,29.89,ENE,62,12.0,-999.0,78,0.00,,,0.00,Wunderground v.1.15,2013-06-14 23:13:00,
2013-06-14 19:18:00,71.9,64.3,29.89,ENE,70,7.0,-999.0,77,0.00,,,0.00,Wunderground v.1.15,2013-06-14 23:18:00,
2013-06-14 19:23:00,71.8,64.2,29.90,ENE,75,10.0,-999.0,77,0.00,,,0.00,Wunderground v.1.15,2013-06-14 23:23:00,
2013-06-14 19:28:00,71.7,64.5,29.90,ENE,61,16.0,-999.0,78,0.00,,,0.00,Wunderground v.1.15,2013-06-14 23:28:00,
2013-06-14 19:34:00,71.2,64.4,29.90,ENE,77,22.0,-999.0,79,0.00,,,0.00,Wunderground v.1.15,2013-06-14 23:34:00,
2013-06-14 19:39:00,71.2,64.0,29.90,ENE,67,14.0,-999.0,78,0.00,,,0.00,Wunderground v.1.15,2013-06-14 23:39:00,
2013-06-14 19:44:00,71.4,64.5,29.90,ENE,61,18.0,-999.0,79,0.00,,,0.00,Wunderground v.1.15,2013-06-14 23:44:00,
2013-06-14 19:49:00,71.2,63.6,29.91,ENE,57,13.0,-999.0,77,0.00,,,0.00,Wunderground v.1.15,2013-06-14 23:49:00,
2013-06-14 19:54:00,70.9,62.6,29.91,ENE,67,16.0,-999.0,75,0.00,,,0.00,Wunderground v.1.15,2013-06-14 23:54:00,
2013-06-14 19:59:00,70.9,62.6,29.91,ENE,67,14.0,-999.0,75,0.00,,,0.00,Wunderground v.1.15,2013-06-14 23:59:00,
2013-06-14 20:04:00,71.0,63.1,29.91,ENE,57,12.0,-999.0,76,0.00,,,0.00,Wunderground v.1.15,2013-06-15 00:04:00,
2013-06-14 20:09:00,70.8,62.1,29.92,NE,47,14.0,-999.0,74,0.00,,,0.00,Wunderground v.1.15,2013-06-15 00:09:00,
2013-06-14 20:14:00,71.0,61.5,29.92,ENE,75,23.0,-999.0,72,0.00,,,0.00,Wunderground v.1.15,2013-06-15 00:14:00,
2013-06-14 20:19:00,70.9,59.4,29.92,ENE,58,13.0,-999.0,67,0.00,,,0.00,Wunderground v.1.15,2013-06-15 00:19:00,
2013-06-14 20:24:00,71.0,58.6,29.92,ENE,66,19.0,-999.0,65,0.00,,,0.00,Wunderground v.1.15,2013-06-15 00:24:00,
2013-06-14 20:29:00,71.0,56.4,29.92,ENE,63,13.0,-999.0,60,0.00,,,0.00,Wunderground v.1.15,2013-06-15 00:29:00,
2013-06-14 20:34:00,71.0,58.2,29.93,ENE,57,16.0,-999.0,64,0.00,,,0.00,Wunderground v.1.15,2013-06-15 00:34:00,
2013-06-14 20:39:00,70.9,58.1,29.93,ENE,59,13.0,-999.0,64,0.00,,,0.00,Wunderground v.1.15,2013-06-15 00:39:00,
2013-06-14 20:44:00,70.9,57.2,29.93,ENE,59,17.0,-999.0,62,0.00,,,0.00,Wunderground v.1.15,2013-06-15 00:44:00,
2013-06-14 20:49:00,70.8,56.2,29.94,NE,49,22.0,-999.0,60,0.00,,,0.00,Wunderground v.1.15,2013-06-15 00:49:00,
2013-06-14 20:54:00,70.6,56.9,29.93,NE,53,14.0,-999.0,62,0.00,,,0.00,Wunderground v.1.15,2013-06-15 00:54:00,
2013-06-14 20:59:00,70.6,58.3,29.94,ENE,57,17.0,-999.0,65,0.00,,,0.00,Wunderground v.1.15,2013-06-15 00:59:00,
2013-06-14 21:04:00,70.4,58.1,29.94,ENE,61,13.0,-999.0,65,0.00,,,0.00,Wunderground v.1.15,2013-06-15 01:04:00,
2013-06-14 21:09:00,70.4,58.9,29.94,ENE,61,9.0,-999.0,67,0.00,,,0.00,Wunderground v.1.15,2013-06-15 01:09:00,
2013-06-14 21:14:00,70.4,58.1,29.94,ENE,61,16.0,-999.0,65,0.00,,,0.00,Wunderground v.1.15,2013-06-15 01:14:00,
2013-06-14 21:19:00,70.4,57.2,29.94,ENE,63,17.0,-999.0,63,0.00,,,0.00,Wunderground v.1.15,2013-06-15 01:19:00,
2013-06-14 21:24:00,70.3,57.5,29.94,ENE,63,14.0,-999.0,64,0.00,,,0.00,Wunderground v.1.15,2013-06-15 01:24:00,
2013-06-14 21:29:00,70.1,57.8,29.95,ENE,59,18.0,-999.0,65,0.00,,,0.00,Wunderground v.1.15,2013-06-15 01:29:00,
2013-06-14 21:34:00,70.1,57.4,29.95,ENE,65,14.0,-999.0,64,0.00,,,0.00,Wunderground v.1.15,2013-06-15 01:34:00,
2013-06-14 21:39:00,70.0,58.1,29.95,ENE,63,10.0,-999.0,66,0.00,,,0.00,Wunderground v.1.15,2013-06-15 01:39:00,
2013-06-14 21:44:00,70.0,57.3,29.95,ENE,74,12.0,-999.0,64,0.00,,,0.00,Wunderground v.1.15,2013-06-15 01:44:00,
2013-06-14 21:49:00,70.0,56.8,29.95,ENE,67,11.0,-999.0,63,0.00,,,0.00,Wunderground v.1.15,2013-06-15 01:49:00,
2013-06-14 21:54:00,70.0,58.1,29.96,NE,54,7.0,-999.0,66,0.00,,,0.00,Wunderground v.1.15,2013-06-15 01:54:00,
2013-06-14 21:59:00,70.0,57.7,29.95,NE,51,11.0,-999.0,65,0.00,,,0.00,Wunderground v.1.15,2013-06-15 01:59:00,
2013-06-14 22:04:00,69.9,58.4,29.96,ENE,75,5.0,-999.0,67,0.00,,,0.00,Wunderground v.1.15,2013-06-15 02:04:00,
2013-06-14 22:09:00,69.9,58.9,29.96,ENE,66,6.0,-999.0,68,0.00,,,0.00,Wunderground v.1.15,2013-06-15 02:09:00,
2013-06-14 22:14:00,69.9,59.3,29.97,ENE,65,7.0,-999.0,69,0.00,,,0.00,Wunderground v.1.15,2013-06-15 02:14:00,
2013-06-14 22:19:00,69.8,59.2,29.97,ENE,67,5.0,-999.0,69,0.00,,,0.00,Wunderground v.1.15,2013-06-15 02:19:00,
2013-06-14 22:24:00,69.9,59.3,29.97,ENE,64,6.0,-999.0,69,0.00,,,0.00,Wunderground v.1.15,2013-06-15 02:24:00,
2013-06-14 22:29:00,69.9,59.3,29.97,ENE,63,7.0,-999.0,69,0.00,,,0.00,Wunderground v.1.15,2013-06-15 02:29:00,
2013-06-14 22:34:00,70.1,59.9,29.97,ENE,69,6.0,-999.0,70,0.00,,,0.00,Wunderground v.1.15,2013-06-15 02:34:00,
2013-06-14 22:39:00,70.0,59.4,29.97,ENE,65,5.0,-999.0,69,0.00,,,0.00,Wunderground v.1.15,2013-06-15 02:39:00,
2013-06-14 22:44:00,69.9,59.3,29.97,ENE,59,7.0,-999.0,69,0.00,,,0.00,Wunderground v.1.15,2013-06-15 02:44:00,
2013-06-14 22:49:00,70.0,60.2,29.97,ENE,58,10.0,-999.0,71,0.00,,,0.00,Wunderground v.1.15,2013-06-15 02:49:00,
2013-06-14 22:54:00,70.1,59.5,29.97,NE,51,6.0,-999.0,69,0.00,,,0.00,Wunderground v.1.15,2013-06-15 02:54:00,
2013-06-14 22:59:00,70.0,59.8,29.97,NE,53,6.0,-999.0,70,0.00,,,0.00,Wunderground v.1.15,2013-06-15 02:59:00,
2013-06-14 23:04:00,70.1,60.3,29.98,NE,56,5.0,-999.0,71,0.00,,,0.00,Wunderground v.1.15,2013-06-15 03:04:00,
2013-06-14 23:09:00,70.1,60.3,29.97,NE,56,4.0,-999.0,71,0.00,,,0.00,Wunderground v.1.15,2013-06-15 03:09:00,
2013-06-14 23:14:00,70.1,60.3,29.97,ENE,58,4.0,-999.0,71,0.00,,,0.00,Wunderground v.1.15,2013-06-15 03:14:00,
2013-06-14 23:19:00,70.1,59.5,29.98,ENE,58,4.0,-999.0,69,0.00,,,0.00,Wunderground v.1.15,2013-06-15 03:19:00,
2013-06-14 23:24:00,70.1,59.9,29.97,ENE,58,5.0,-999.0,70,0.00,,,0.00,Wunderground v.1.15,2013-06-15 03:24:00,
2013-06-14 23:29:00,70.1,60.3,29.98,ENE,58,3.0,-999.0,71,0.00,,,0.00,Wunderground v.1.15,2013-06-15 03:29:00,
2013-06-14 23:34:00,70.1,59.9,29.98,ENE,58,4.0,-999.0,70,0.00,,,0.00,Wunderground v.1.15,2013-06-15 03:34:00,
2013-06-14 23:40:00,70.1,59.5,29.97,ENE,58,3.0,-999.0,69,0.00,,,0.00,Wunderground v.1.15,2013-06-15 03:40:00,
2013-06-14 23:45:00,70.1,59.0,29.97,ENE,59,4.0,-999.0,68,0.00,,,0.00,Wunderground v.1.15,2013-06-15 03:45:00,
2013-06-14 23:50:00,70.1,59.5,29.97,ENE,59,2.0,-999.0,69,0.00,,,0.00,Wunderground v.1.15,2013-06-15 03:50:00,
2013-06-14 23:55:00,70.1,59.5,29.98,ENE,59,3.0,-999.0,69,0.00,,,0.00,Wunderground v.1.15,2013-06-15 03:55:00,